Keiser, Arkansas
Current Conditions -  °F | °C
As of 6:53 AM on Friday 28 Nov 2014 (Local Time) from KHKA Reporting Station
Clear Clear  
Wind Chill: 30°   Ceiling: Unl
Heat Index: 37°   Visibility: 10mi
Dew Point: 25°   Wind: 10mph
Humidity: 62%   Direction: 170°S
Pressure: 30.4"   Gusts: NA
Location:  35.67°N, 90.1°W
Report Text: KHKA 281253Z AUTO 17009KT 10SM CLR 03/M04 A3040 RMK AO2 SLP296 T00281039 $
Loading
Personal Weather Stations






























Interactive Weather Map New forecast layout! Learn more

10-Day Weather Forecast

Advertisements
Track Severe Weather on mobile